Farber, Missouri
Current Conditions -  °F | °C
As of 6:35 PM on Monday 22 Dec 2014 (Local Time) from KHAE Reporting Station
Unknown Precip Unknown Precip  
Wind Chill: 44°   Ceiling: 500
Heat Index: 46°   Visibility: 5mi
Dew Point: 45°   Wind: 6mph
Humidity: 93%   Direction: 140°SE
Pressure: 29.49"   Gusts: NA
Location:  39.27°N, 91.57°W
Report Text: KHAE 230035Z AUTO 14005KT 5SM UP OVC005 08/07 A2949 RMK AO2
Loading
Personal Weather Stations






























Interactive Weather Map New forecast layout! Learn more

10-Day Weather Forecast

Advertisements
Track Severe Weather on mobile